createdAt,value
2018-09-14T00:00:30.532Z,1017.68
2018-09-14T00:01:30.508Z,1017.62
2018-09-14T00:02:30.802Z,1017.64
2018-09-14T00:03:31.242Z,1017.63
2018-09-14T00:04:30.444Z,1017.65
2018-09-14T00:05:31.243Z,1017.63
2018-09-14T00:06:30.366Z,1017.60
2018-09-14T00:07:30.398Z,1017.64
2018-09-14T00:08:31.242Z,1017.61
2018-09-14T00:09:30.295Z,1017.62
2018-09-14T00:10:31.245Z,1017.61
2018-09-14T00:11:30.233Z,1017.61
2018-09-14T00:12:30.252Z,1017.60
2018-09-14T00:13:30.293Z,1017.57
2018-09-14T00:14:30.155Z,1017.64
2018-09-14T00:15:30.127Z,1017.59
2018-09-14T00:16:30.108Z,1017.60
2018-09-14T00:17:30.090Z,1017.56
2018-09-14T00:18:30.123Z,1017.58
2018-09-14T00:19:30.745Z,1017.56
2018-09-14T00:20:30.744Z,1017.59
2018-09-14T00:21:29.967Z,1017.61
2018-09-14T00:22:30.301Z,1017.53
2018-09-14T00:23:29.957Z,1017.59
2018-09-14T00:24:30.752Z,1017.54
2018-09-14T00:25:30.744Z,1017.57
2018-09-14T00:26:30.743Z,1017.54
2018-09-14T00:27:29.815Z,1017.56
2018-09-14T00:28:29.827Z,1017.56
2018-09-14T00:29:29.803Z,1017.57
2018-09-14T00:30:29.726Z,1017.58
2018-09-14T00:31:29.695Z,1017.58
2018-09-14T00:32:30.245Z,1017.59
2018-09-14T00:33:29.655Z,1017.59
2018-09-14T00:34:29.661Z,1017.57
2018-09-14T00:35:29.592Z,1017.56
2018-09-14T00:36:29.563Z,1017.54
2018-09-14T00:37:29.535Z,1017.59
2018-09-14T00:38:29.562Z,1017.57
2018-09-14T00:39:29.809Z,1017.57
2018-09-14T00:40:30.249Z,1017.55
2018-09-14T00:41:30.249Z,1017.52
2018-09-14T00:42:29.404Z,1017.55
2018-09-14T00:43:29.375Z,1017.55
2018-09-14T00:44:30.304Z,1017.54
2018-09-14T00:45:29.374Z,1017.59
2018-09-14T00:46:29.302Z,1017.56
2018-09-14T00:47:30.249Z,1017.58
2018-09-14T00:48:29.245Z,1017.59
2018-09-14T00:49:29.309Z,1017.59
2018-09-14T00:50:29.746Z,1017.60
2018-09-14T00:51:29.163Z,1017.65
2018-09-14T00:52:29.747Z,1017.59
2018-09-14T00:53:29.114Z,1017.62
2018-09-14T00:54:29.129Z,1017.61
2018-09-14T00:55:29.315Z,1017.59
2018-09-14T00:56:29.769Z,1017.56
2018-09-14T00:57:29.007Z,1017.58
2018-09-14T00:58:29.749Z,1017.55
2018-09-14T00:59:29.748Z,1017.55
2018-09-14T01:00:29.295Z,1017.56
2018-09-14T01:01:28.942Z,1017.56
2018-09-14T01:02:28.875Z,1017.56
2018-09-14T01:03:28.847Z,1017.53
2018-09-14T01:04:28.868Z,1017.57
2018-09-14T01:05:29.763Z,1017.54
2018-09-14T01:06:29.320Z,1017.59
2018-09-14T01:07:28.747Z,1017.58
2018-09-14T01:08:28.716Z,1017.58
2018-09-14T01:09:28.691Z,1017.58
2018-09-14T01:10:29.251Z,1017.57
2018-09-14T01:11:28.681Z,1017.54
2018-09-14T01:12:28.730Z,1017.55
2018-09-14T01:13:29.252Z,1017.56
2018-09-14T01:14:28.596Z,1017.54
2018-09-14T01:15:28.805Z,1017.53
2018-09-14T01:16:28.505Z,1017.52
2018-09-14T01:17:29.250Z,1017.51
2018-09-14T01:18:28.816Z,1017.50
2018-09-14T01:19:28.424Z,1017.53
2018-09-14T01:20:28.401Z,1017.47
2018-09-14T01:21:29.254Z,1017.51
2018-09-14T01:22:28.347Z,1017.56
2018-09-14T01:23:28.810Z,1017.53
2018-09-14T01:24:28.297Z,1017.53
2018-09-14T01:25:29.255Z,1017.62
2018-09-14T01:26:28.243Z,1017.60
2018-09-14T01:27:29.160Z,1017.63
2018-09-14T01:28:28.187Z,1017.57
2018-09-14T01:29:28.163Z,1017.56
2018-09-14T01:30:28.754Z,1017.56
2018-09-14T01:31:28.320Z,1017.58
2018-09-14T01:32:28.757Z,1017.55
2018-09-14T01:33:28.058Z,1017.55
2018-09-14T01:34:28.088Z,1017.50
2018-09-14T01:35:28.755Z,1017.49
2018-09-14T01:36:28.753Z,1017.53
2018-09-14T01:37:28.757Z,1017.52
2018-09-14T01:38:28.756Z,1017.50
2018-09-14T01:39:28.322Z,1017.50
2018-09-14T01:40:28.755Z,1017.46
2018-09-14T01:41:28.760Z,1017.52
2018-09-14T01:42:27.825Z,1017.52
2018-09-14T01:43:28.755Z,1017.48
2018-09-14T01:44:28.310Z,1017.47
2018-09-14T01:45:27.745Z,1017.42
2018-09-14T01:46:27.715Z,1017.46
2018-09-14T01:47:27.823Z,1017.48
2018-09-14T01:48:27.674Z,1017.45
2018-09-14T01:49:28.255Z,1017.47
2018-09-14T01:50:27.616Z,1017.45
2018-09-14T01:51:27.586Z,1017.43
2018-09-14T01:52:27.811Z,1017.40
2018-09-14T01:53:27.535Z,1017.40
2018-09-14T01:54:27.506Z,1017.37
2018-09-14T01:55:27.815Z,1017.36
2018-09-14T01:56:27.461Z,1017.37
2018-09-14T01:57:28.260Z,1017.36
2018-09-14T01:58:27.440Z,1017.35
2018-09-14T01:59:27.374Z,1017.36
2018-09-14T02:00:27.822Z,1017.35
2018-09-14T02:01:27.325Z,1017.39
2018-09-14T02:02:28.260Z,1017.41
2018-09-14T02:03:28.280Z,1017.38
2018-09-14T02:04:27.765Z,1017.41
2018-09-14T02:05:27.261Z,1017.41
2018-09-14T02:06:27.760Z,1017.39
2018-09-14T02:07:27.771Z,1017.39
2018-09-14T02:08:27.761Z,1017.37
2018-09-14T02:09:27.196Z,1017.34
2018-09-14T02:10:27.761Z,1017.35
2018-09-14T02:11:27.317Z,1017.31
2018-09-14T02:12:27.033Z,1017.35
2018-09-14T02:13:27.760Z,1017.34
2018-09-14T02:14:27.421Z,1017.31
2018-09-14T02:15:26.961Z,1017.36
2018-09-14T02:16:26.932Z,1017.30
2018-09-14T02:17:26.903Z,1017.30
2018-09-14T02:18:27.766Z,1017.28
2018-09-14T02:19:26.898Z,1017.29
2018-09-14T02:20:27.763Z,1017.28
2018-09-14T02:21:26.851Z,1017.28
2018-09-14T02:22:26.769Z,1017.26
2018-09-14T02:23:26.746Z,1017.28
2018-09-14T02:24:27.265Z,1017.30
2018-09-14T02:25:26.846Z,1017.27
2018-09-14T02:26:26.720Z,1017.35
2018-09-14T02:27:26.816Z,1017.35
2018-09-14T02:28:26.653Z,1017.38
2018-09-14T02:29:27.266Z,1017.38
2018-09-14T02:30:26.834Z,1017.39
2018-09-14T02:31:27.266Z,1017.38
2018-09-14T02:32:26.507Z,1017.37
2018-09-14T02:33:26.476Z,1017.40
2018-09-14T02:34:26.462Z,1017.43
2018-09-14T02:35:26.818Z,1017.40
2018-09-14T02:36:26.439Z,1017.45
2018-09-14T02:37:26.513Z,1017.43
2018-09-14T02:38:27.292Z,1017.38
2018-09-14T02:39:27.269Z,1017.36
2018-09-14T02:40:26.294Z,1017.41
2018-09-14T02:41:26.328Z,1017.37
2018-09-14T02:42:26.328Z,1017.32
2018-09-14T02:43:26.223Z,1017.33
2018-09-14T02:44:26.198Z,1017.35
2018-09-14T02:45:26.186Z,1017.32
2018-09-14T02:46:26.136Z,1017.31
2018-09-14T02:47:26.873Z,1017.33
2018-09-14T02:48:26.089Z,1017.29
2018-09-14T02:49:26.777Z,1017.27
2018-09-14T02:50:26.031Z,1017.24
2018-09-14T02:51:26.777Z,1017.23
2018-09-14T02:52:26.034Z,1017.23
2018-09-14T02:53:25.944Z,1017.24
2018-09-14T02:54:26.778Z,1017.14
2018-09-14T02:55:25.890Z,1017.20
2018-09-14T02:56:26.774Z,1017.20
2018-09-14T02:57:25.889Z,1017.20
2018-09-14T02:58:26.780Z,1017.18
2018-09-14T02:59:25.781Z,1017.17
2018-09-14T03:00:26.284Z,1017.17
2018-09-14T03:01:25.731Z,1017.12
2018-09-14T03:02:25.763Z,1017.14
2018-09-14T03:03:25.682Z,1017.12
2018-09-14T03:04:26.272Z,1017.11
2018-09-14T03:05:26.271Z,1017.12
2018-09-14T03:06:25.605Z,1017.12
2018-09-14T03:07:25.612Z,1017.12
2018-09-14T03:08:25.832Z,1017.14
2018-09-14T03:09:25.529Z,1017.14
2018-09-14T03:10:25.486Z,1017.13
2018-09-14T03:11:25.466Z,1017.16
2018-09-14T03:12:25.438Z,1017.16
2018-09-14T03:13:25.840Z,1017.18
2018-09-14T03:14:26.282Z,1017.17
2018-09-14T03:15:25.357Z,1017.17
2018-09-14T03:16:26.286Z,1017.15
2018-09-14T03:17:26.275Z,1017.18
2018-09-14T03:18:25.332Z,1017.20
2018-09-14T03:19:25.355Z,1017.22
2018-09-14T03:20:25.221Z,1017.22
2018-09-14T03:21:25.193Z,1017.24
2018-09-14T03:22:25.774Z,1017.25
2018-09-14T03:23:25.139Z,1017.21
2018-09-14T03:24:25.342Z,1017.24
2018-09-14T03:25:25.798Z,1017.27
2018-09-14T03:26:25.777Z,1017.26
2018-09-14T03:27:25.032Z,1017.27
2018-09-14T03:28:25.782Z,1017.26
2018-09-14T03:29:25.346Z,1017.26
2018-09-14T03:30:25.777Z,1017.29
2018-09-14T03:31:25.781Z,1017.27
2018-09-14T03:32:24.912Z,1017.33
2018-09-14T03:33:25.779Z,1017.28
2018-09-14T03:34:24.899Z,1017.30
2018-09-14T03:35:26.685Z,1017.24
2018-09-14T03:36:24.796Z,1017.28
2018-09-14T03:37:24.785Z,1017.26
2018-09-14T03:38:25.284Z,1017.31
2018-09-14T03:39:24.879Z,1017.27
2018-09-14T03:40:25.278Z,1017.30
2018-09-14T03:41:24.656Z,1017.30
2018-09-14T03:42:24.673Z,1017.32
2018-09-14T03:43:24.619Z,1017.31
2018-09-14T03:44:24.579Z,1017.29
2018-09-14T03:45:24.552Z,1017.28
2018-09-14T03:46:24.569Z,1017.28
2018-09-14T03:47:24.500Z,1017.30
2018-09-14T03:48:24.470Z,1017.29
2018-09-14T03:49:25.281Z,1017.29
2018-09-14T03:50:25.282Z,1017.30
2018-09-14T03:51:24.838Z,1017.31
2018-09-14T03:52:25.286Z,1017.28
2018-09-14T03:53:25.284Z,1017.29
2018-09-14T03:54:24.315Z,1017.26
2018-09-14T03:55:24.787Z,1017.27
2018-09-14T03:56:24.351Z,1017.26
2018-09-14T03:57:24.266Z,1017.29
2018-09-14T03:58:24.782Z,1017.30
2018-09-14T03:59:26.786Z,1017.31
2018-09-14T04:00:24.784Z,1017.32
2018-09-14T04:01:24.358Z,1017.32
2018-09-14T04:02:24.789Z,1017.31
2018-09-14T04:03:24.791Z,1017.31
2018-09-14T04:04:24.046Z,1017.28
2018-09-14T04:05:24.017Z,1017.28
2018-09-14T04:06:24.037Z,1017.28
2018-09-14T04:07:24.784Z,1017.28
2018-09-14T04:08:23.940Z,1017.29
2018-09-14T04:09:24.339Z,1017.28
2018-09-14T04:10:23.887Z,1017.27
2018-09-14T04:11:24.787Z,1017.28
2018-09-14T04:12:26.785Z,1017.27
2018-09-14T04:13:24.785Z,1017.25
2018-09-14T04:14:23.841Z,1017.24
2018-09-14T04:15:23.758Z,1017.23
2018-09-14T04:16:23.725Z,1017.24
2018-09-14T04:17:23.740Z,1017.22
2018-09-14T04:18:23.677Z,1017.21
2018-09-14T04:19:23.690Z,1017.21
2018-09-14T04:20:24.288Z,1017.20
2018-09-14T04:21:23.595Z,1017.22
2018-09-14T04:22:24.288Z,1017.20
2018-09-14T04:23:23.559Z,1017.20
2018-09-14T04:24:23.572Z,1017.21
2018-09-14T04:25:23.489Z,1017.20
2018-09-14T04:26:23.465Z,1017.20
2018-09-14T04:27:23.433Z,1017.20
2018-09-14T04:28:24.289Z,1017.18
2018-09-14T04:29:23.853Z,1017.13
2018-09-14T04:30:24.290Z,1017.19
2018-09-14T04:31:23.329Z,1017.20
2018-09-14T04:32:23.306Z,1017.22
2018-09-14T04:33:23.793Z,1017.22
2018-09-14T04:34:23.291Z,1017.26
2018-09-14T04:35:23.222Z,1017.24
2018-09-14T04:36:23.792Z,1017.29
2018-09-14T04:37:23.172Z,1017.31
2018-09-14T04:38:23.253Z,1017.32
2018-09-14T04:39:23.120Z,1017.30
2018-09-14T04:40:23.091Z,1017.31
2018-09-14T04:41:23.060Z,1017.29
2018-09-14T04:42:23.040Z,1017.29
2018-09-14T04:43:23.064Z,1017.31
2018-09-14T04:44:22.984Z,1017.34
2018-09-14T04:45:23.000Z,1017.31
2018-09-14T04:46:23.795Z,1017.32
2018-09-14T04:47:23.797Z,1017.33
2018-09-14T04:48:23.039Z,1017.34
2018-09-14T04:49:23.349Z,1017.29
2018-09-14T04:50:22.824Z,1017.35
2018-09-14T04:51:22.918Z,1017.33
2018-09-14T04:52:23.319Z,1017.30
2018-09-14T04:53:22.746Z,1017.33
2018-09-14T04:54:22.766Z,1017.36
2018-09-14T04:55:23.301Z,1017.33
2018-09-14T04:56:22.855Z,1017.35
2018-09-14T04:57:22.751Z,1017.34
2018-09-14T04:58:22.614Z,1017.35
2018-09-14T04:59:23.297Z,1017.38
2018-09-14T05:00:22.563Z,1017.35
2018-09-14T05:01:22.532Z,1017.35
2018-09-14T05:02:22.548Z,1017.38
2018-09-14T05:03:22.548Z,1017.38
2018-09-14T05:04:23.296Z,1017.41
2018-09-14T05:05:22.429Z,1017.41
2018-09-14T05:06:22.410Z,1017.42
2018-09-14T05:07:22.860Z,1017.41
2018-09-14T05:08:22.899Z,1017.46
2018-09-14T05:09:23.415Z,1017.48
2018-09-14T05:10:22.298Z,1017.44
2018-09-14T05:11:22.272Z,1017.43
2018-09-14T05:12:22.812Z,1017.41
2018-09-14T05:13:22.352Z,1017.41
2018-09-14T05:14:22.807Z,1017.43
2018-09-14T05:15:22.163Z,1017.46
2018-09-14T05:16:22.136Z,1017.45
2018-09-14T05:17:22.796Z,1017.45
2018-09-14T05:18:22.367Z,1017.41
2018-09-14T05:19:22.058Z,1017.43
2018-09-14T05:20:22.799Z,1017.47
2018-09-14T05:21:22.804Z,1017.47
2018-09-14T05:22:21.983Z,1017.45
2018-09-14T05:23:22.358Z,1017.46
2018-09-14T05:24:22.820Z,1017.49
2018-09-14T05:25:22.800Z,1017.48
2018-09-14T05:26:21.921Z,1017.50
2018-09-14T05:27:21.864Z,1017.50
2018-09-14T05:28:21.824Z,1017.52
2018-09-14T05:29:21.792Z,1017.52
2018-09-14T05:30:22.309Z,1017.52
2018-09-14T05:31:21.862Z,1017.51
2018-09-14T05:32:22.302Z,1017.57
2018-09-14T05:33:22.304Z,1017.57
2018-09-14T05:34:21.663Z,1017.60
2018-09-14T05:35:22.305Z,1017.59
2018-09-14T05:36:21.652Z,1017.58
2018-09-14T05:37:22.305Z,1017.55
2018-09-14T05:38:22.384Z,1017.53
2018-09-14T05:39:22.305Z,1017.54
2018-09-14T05:40:22.306Z,1017.55
2018-09-14T05:41:21.530Z,1017.55
2018-09-14T05:42:21.498Z,1017.59
2018-09-14T05:43:22.308Z,1017.62
2018-09-14T05:44:22.305Z,1017.62
2018-09-14T05:45:22.309Z,1017.61
2018-09-14T05:46:21.867Z,1017.59
2018-09-14T05:47:22.308Z,1017.59
2018-09-14T05:48:21.306Z,1017.61
2018-09-14T05:49:21.284Z,1017.59
2018-09-14T05:50:21.804Z,1017.56
2018-09-14T05:51:21.265Z,1017.58
2018-09-14T05:52:21.198Z,1017.59
2018-09-14T05:53:21.806Z,1017.61
2018-09-14T05:54:21.851Z,1017.63
2018-09-14T05:55:21.120Z,1017.63
2018-09-14T05:56:21.375Z,1017.62
2018-09-14T05:57:21.067Z,1017.61
2018-09-14T05:58:21.059Z,1017.65
2018-09-14T05:59:21.061Z,1017.61
2018-09-14T06:00:20.990Z,1017.64
2018-09-14T06:01:20.966Z,1017.67
2018-09-14T06:02:20.941Z,1017.68
2018-09-14T06:03:20.966Z,1017.68
2018-09-14T06:04:20.893Z,1017.73
2018-09-14T06:05:21.811Z,1017.72
2018-09-14T06:06:20.839Z,1017.73
2018-09-14T06:07:20.812Z,1017.74
2018-09-14T06:08:20.834Z,1017.74
2018-09-14T06:09:20.772Z,1017.77
2018-09-14T06:10:20.740Z,1017.80
2018-09-14T06:11:20.715Z,1017.79
2018-09-14T06:12:20.863Z,1017.81
2018-09-14T06:13:20.661Z,1017.80
2018-09-14T06:14:21.312Z,1017.86
2018-09-14T06:15:20.626Z,1017.87
2018-09-14T06:16:20.589Z,1017.88
2018-09-14T06:17:20.609Z,1017.87
2018-09-14T06:18:20.531Z,1017.85
2018-09-14T06:19:20.527Z,1017.87
2018-09-14T06:20:20.483Z,1017.85
2018-09-14T06:21:20.466Z,1017.85
2018-09-14T06:22:20.895Z,1017.86
2018-09-14T06:23:20.407Z,1017.88
2018-09-14T06:24:20.389Z,1017.89
2018-09-14T06:25:20.355Z,1017.89
2018-09-14T06:26:20.333Z,1017.90
2018-09-14T06:27:20.352Z,1017.87
2018-09-14T06:28:20.283Z,1017.91
2018-09-14T06:29:20.291Z,1017.90
2018-09-14T06:30:20.311Z,1017.88
2018-09-14T06:31:20.206Z,1017.85
2018-09-14T06:32:20.180Z,1017.89
2018-09-14T06:33:20.159Z,1017.92
2018-09-14T06:34:20.131Z,1017.91
2018-09-14T06:35:20.147Z,1017.90
2018-09-14T06:36:20.081Z,1017.90
2018-09-14T06:37:20.055Z,1017.91
2018-09-14T06:38:20.046Z,1017.92
2018-09-14T06:39:20.006Z,1017.93
2018-09-14T06:40:20.033Z,1017.90
2018-09-14T06:41:19.977Z,1017.94
2018-09-14T06:42:19.975Z,1017.91
2018-09-14T06:43:19.905Z,1017.93
2018-09-14T06:44:19.882Z,1017.91
2018-09-14T06:45:19.913Z,1017.89
2018-09-14T06:46:19.857Z,1017.91
2018-09-14T06:47:19.806Z,1017.89
2018-09-14T06:48:19.780Z,1017.87
2018-09-14T06:49:20.323Z,1017.92
2018-09-14T06:50:19.781Z,1017.93
2018-09-14T06:51:20.324Z,1017.91
2018-09-14T06:52:19.724Z,1017.97
2018-09-14T06:53:19.911Z,1017.93
2018-09-14T06:54:19.635Z,1017.95
2018-09-14T06:55:19.607Z,1017.92
2018-09-14T06:56:19.582Z,1017.94
2018-09-14T06:57:19.602Z,1017.94
2018-09-14T06:58:19.541Z,1017.97
2018-09-14T06:59:19.508Z,1017.95
2018-09-14T07:00:19.499Z,1017.95
2018-09-14T07:01:19.459Z,1018.00
2018-09-14T07:02:19.505Z,1017.98
2018-09-14T07:03:19.441Z,1017.99
2018-09-14T07:04:19.386Z,1018.02
2018-09-14T07:05:19.455Z,1018.05
2018-09-14T07:06:19.352Z,1018.01
2018-09-14T07:07:19.372Z,1018.01
2018-09-14T07:08:19.285Z,1018.00
2018-09-14T07:09:19.258Z,1017.99
2018-09-14T07:10:19.240Z,1018.04
2018-09-14T07:11:19.213Z,1018.01
2018-09-14T07:12:19.231Z,1018.05
2018-09-14T07:13:19.230Z,1018.03
2018-09-14T07:14:19.135Z,1018.03
2018-09-14T07:15:19.111Z,1018.02
2018-09-14T07:16:19.091Z,1018.05
2018-09-14T07:17:19.392Z,1018.00
2018-09-14T07:18:19.043Z,1018.06
2018-09-14T07:19:19.013Z,1018.07
2018-09-14T07:20:18.995Z,1018.07
2018-09-14T07:21:18.971Z,1018.08
2018-09-14T07:22:19.047Z,1018.10
2018-09-14T07:23:18.915Z,1018.09
2018-09-14T07:24:18.971Z,1018.11
2018-09-14T07:25:18.868Z,1018.11
2018-09-14T07:26:18.884Z,1018.12
2018-09-14T07:27:18.888Z,1018.10
2018-09-14T07:28:18.848Z,1018.12
2018-09-14T07:29:18.787Z,1018.13
2018-09-14T07:30:18.775Z,1018.19
2018-09-14T07:31:18.755Z,1018.16
2018-09-14T07:32:18.724Z,1018.17
2018-09-14T07:33:18.751Z,1018.13
2018-09-14T07:34:18.698Z,1018.12
2018-09-14T07:35:18.633Z,1018.17
2018-09-14T07:36:18.650Z,1018.13
2018-09-14T07:37:18.580Z,1018.14
2018-09-14T07:38:18.594Z,1018.12
2018-09-14T07:39:18.571Z,1018.15
2018-09-14T07:40:18.558Z,1018.13
2018-09-14T07:41:18.483Z,1018.12
2018-09-14T07:42:18.473Z,1018.15
2018-09-14T07:43:18.438Z,1018.13
2018-09-14T07:44:18.414Z,1018.14
2018-09-14T07:45:18.445Z,1018.17
2018-09-14T07:46:18.364Z,1018.15
2018-09-14T07:47:18.351Z,1018.19
2018-09-14T07:48:18.408Z,1018.17
2018-09-14T07:49:18.351Z,1018.17
2018-09-14T07:50:18.275Z,1018.20
2018-09-14T07:51:18.249Z,1018.20
2018-09-14T07:52:18.231Z,1018.16
2018-09-14T07:53:18.202Z,1018.19
2018-09-14T07:54:18.222Z,1018.20
2018-09-14T07:55:18.204Z,1018.21
2018-09-14T07:56:18.131Z,1018.23
2018-09-14T07:57:18.110Z,1018.21
2018-09-14T07:58:18.085Z,1018.27
2018-09-14T07:59:18.115Z,1018.26
2018-09-14T08:00:18.037Z,1018.25
2018-09-14T08:01:18.889Z,1018.29
2018-09-14T08:02:18.042Z,1018.34
2018-09-14T08:03:18.014Z,1018.34
2018-09-14T08:04:17.949Z,1018.35
2018-09-14T08:05:17.922Z,1018.34
2018-09-14T08:06:17.972Z,1018.37
2018-09-14T08:07:17.877Z,1018.35
2018-09-14T08:08:17.899Z,1018.34
2018-09-14T08:09:17.874Z,1018.33
2018-09-14T08:10:17.812Z,1018.32
2018-09-14T08:11:17.785Z,1018.35
2018-09-14T08:12:17.763Z,1018.35
2018-09-14T08:13:17.794Z,1018.38
2018-09-14T08:14:17.720Z,1018.37
2018-09-14T08:15:17.697Z,1018.41
2018-09-14T08:16:17.674Z,1018.37
2018-09-14T08:17:17.649Z,1018.44
2018-09-14T08:18:17.946Z,1018.39
2018-09-14T08:19:17.608Z,1018.38
2018-09-14T08:20:17.672Z,1018.44
2018-09-14T08:21:17.658Z,1018.42
2018-09-14T08:22:17.585Z,1018.42
2018-09-14T08:23:17.516Z,1018.41
2018-09-14T08:24:17.498Z,1018.41
2018-09-14T08:25:17.475Z,1018.40
2018-09-14T08:26:17.454Z,1018.41
2018-09-14T08:27:17.543Z,1018.43
2018-09-14T08:28:17.406Z,1018.40
2018-09-14T08:29:17.419Z,1018.38
2018-09-14T08:30:18.371Z,1018.40
2018-09-14T08:31:17.348Z,1018.43
2018-09-14T08:32:17.403Z,1018.40
2018-09-14T08:33:17.344Z,1018.39
2018-09-14T08:34:17.281Z,1018.40
2018-09-14T08:35:17.254Z,1018.37
2018-09-14T08:36:17.248Z,1018.40
2018-09-14T08:37:17.213Z,1018.37
2018-09-14T08:38:17.230Z,1018.39
2018-09-14T08:39:17.161Z,1018.39
2018-09-14T08:40:17.140Z,1018.36
2018-09-14T08:41:17.120Z,1018.40
2018-09-14T08:42:17.100Z,1018.42
2018-09-14T08:43:17.121Z,1018.42
2018-09-14T08:44:17.056Z,1018.40
2018-09-14T08:45:17.031Z,1018.38
2018-09-14T08:46:17.047Z,1018.36
2018-09-14T08:47:16.989Z,1018.41
2018-09-14T08:48:17.010Z,1018.36
2018-09-14T08:49:16.953Z,1018.40
2018-09-14T08:50:16.927Z,1018.39
2018-09-14T08:51:16.906Z,1018.41
2018-09-14T08:52:16.880Z,1018.45
2018-09-14T08:53:16.919Z,1018.45
2018-09-14T08:54:16.834Z,1018.41
2018-09-14T08:55:16.818Z,1018.42
2018-09-14T08:56:16.804Z,1018.43
2018-09-14T08:57:16.772Z,1018.44
2018-09-14T08:58:16.811Z,1018.44
2018-09-14T08:59:16.728Z,1018.44
2018-09-14T09:00:16.707Z,1018.45
2018-09-14T09:01:16.687Z,1018.45
2018-09-14T09:02:16.664Z,1018.43
2018-09-14T09:03:16.686Z,1018.41
2018-09-14T09:04:16.668Z,1018.38
2018-09-14T09:05:16.644Z,1018.40
2018-09-14T09:06:16.649Z,1018.38
2018-09-14T09:07:16.625Z,1018.40
2018-09-14T09:08:16.538Z,1018.39
2018-09-14T09:09:16.619Z,1018.44
2018-09-14T09:10:16.553Z,1018.42
2018-09-14T09:11:16.532Z,1018.42
2018-09-14T09:12:16.481Z,1018.46
2018-09-14T09:13:16.426Z,1018.45
2018-09-14T09:14:16.408Z,1018.43
2018-09-14T09:15:16.429Z,1018.41
2018-09-14T09:16:16.431Z,1018.41
2018-09-14T09:17:16.345Z,1018.43
2018-09-14T09:18:16.321Z,1018.38
2018-09-14T09:19:16.361Z,1018.40
2018-09-14T09:20:16.279Z,1018.40
2018-09-14T09:21:16.388Z,1018.40
2018-09-14T09:22:16.271Z,1018.41
2018-09-14T09:23:16.246Z,1018.40
2018-09-14T09:24:16.218Z,1018.42
2018-09-14T09:25:16.235Z,1018.44
2018-09-14T09:26:16.221Z,1018.42
2018-09-14T09:27:16.143Z,1018.42
2018-09-14T09:28:16.130Z,1018.43
2018-09-14T09:29:16.134Z,1018.42
2018-09-14T09:30:16.118Z,1018.41
2018-09-14T09:31:16.090Z,1018.41
2018-09-14T09:32:16.038Z,1018.41
2018-09-14T09:33:16.022Z,1018.43
2018-09-14T09:34:16.064Z,1018.40
2018-09-14T09:35:15.969Z,1018.40
2018-09-14T09:36:15.993Z,1018.39
2018-09-14T09:37:15.926Z,1018.41
2018-09-14T09:38:15.900Z,1018.37
2018-09-14T09:39:15.880Z,1018.39
2018-09-14T09:40:15.861Z,1018.37
2018-09-14T09:41:15.896Z,1018.37
2018-09-14T09:42:15.826Z,1018.36
2018-09-14T09:43:15.903Z,1018.33
2018-09-14T09:44:15.785Z,1018.36
2018-09-14T09:45:15.760Z,1018.34
2018-09-14T09:46:15.781Z,1018.35
2018-09-14T09:47:15.717Z,1018.33
2018-09-14T09:48:15.741Z,1018.28
2018-09-14T09:49:15.676Z,1018.28
2018-09-14T09:50:15.660Z,1018.27
2018-09-14T09:51:15.675Z,1018.31
2018-09-14T09:52:15.673Z,1018.24
2018-09-14T09:53:15.590Z,1018.27
2018-09-14T09:54:15.578Z,1018.29
2018-09-14T09:55:15.547Z,1018.27
2018-09-14T09:56:15.538Z,1018.28
2018-09-14T09:57:15.919Z,1018.29
2018-09-14T09:58:15.485Z,1018.29
2018-09-14T09:59:15.518Z,1018.29
2018-09-14T10:00:15.442Z,1018.25
2018-09-14T10:01:15.427Z,1018.27
2018-09-14T10:02:15.402Z,1018.29
2018-09-14T10:03:15.385Z,1018.31
2018-09-14T10:04:15.417Z,1018.27
2018-09-14T10:05:15.878Z,1018.27
2018-09-14T10:06:15.319Z,1018.27
2018-09-14T10:07:15.313Z,1018.26
2018-09-14T10:08:15.280Z,1018.27
2018-09-14T10:09:15.318Z,1018.22
2018-09-14T10:10:15.238Z,1018.21
2018-09-14T10:11:15.219Z,1018.16
2018-09-14T10:12:15.200Z,1018.18
2018-09-14T10:13:15.179Z,1018.22
2018-09-14T10:14:15.294Z,1018.18
2018-09-14T10:15:15.151Z,1018.18
2018-09-14T10:16:15.117Z,1018.20
2018-09-14T10:17:15.096Z,1018.21
2018-09-14T10:18:15.133Z,1018.20
2018-09-14T10:19:15.060Z,1018.23
2018-09-14T10:20:15.082Z,1018.20
2018-09-14T10:21:15.090Z,1018.20
2018-09-14T10:22:14.994Z,1018.21
2018-09-14T10:23:14.975Z,1018.20
2018-09-14T10:24:14.952Z,1018.20
2018-09-14T10:25:14.982Z,1018.21
2018-09-14T10:26:14.914Z,1018.19
2018-09-14T10:27:14.909Z,1018.22
2018-09-14T10:28:14.882Z,1018.18
2018-09-14T10:29:14.859Z,1018.20
2018-09-14T10:30:14.883Z,1018.22
2018-09-14T10:31:14.821Z,1018.20
2018-09-14T10:32:14.795Z,1018.18
2018-09-14T10:33:14.781Z,1018.17
2018-09-14T10:34:14.757Z,1018.17
2018-09-14T10:35:14.880Z,1018.18
2018-09-14T10:36:14.719Z,1018.20
2018-09-14T10:37:14.696Z,1018.18
2018-09-14T10:38:14.960Z,1018.24
2018-09-14T10:39:14.700Z,1018.17
2018-09-14T10:40:15.386Z,1018.22
2018-09-14T10:41:14.618Z,1018.25
2018-09-14T10:42:14.602Z,1018.20
2018-09-14T10:43:14.620Z,1018.22
2018-09-14T10:44:14.558Z,1018.18
2018-09-14T10:45:14.595Z,1018.20
2018-09-14T10:46:14.578Z,1018.21
2018-09-14T10:47:14.501Z,1018.18
2018-09-14T10:48:14.485Z,1018.18
2018-09-14T10:49:14.462Z,1018.16
2018-09-14T10:50:14.443Z,1018.15
2018-09-14T10:51:14.944Z,1018.15
2018-09-14T10:52:14.403Z,1018.13
2018-09-14T10:53:14.424Z,1018.12
2018-09-14T10:54:14.366Z,1018.12
2018-09-14T10:55:14.375Z,1018.14
2018-09-14T10:56:14.324Z,1018.12
2018-09-14T10:57:14.363Z,1018.08
2018-09-14T10:58:14.289Z,1018.11
2018-09-14T10:59:14.262Z,1018.07
2018-09-14T11:00:14.257Z,1018.09
2018-09-14T11:01:14.226Z,1018.00
2018-09-14T11:02:14.250Z,1018.01
2018-09-14T11:03:14.233Z,1018.03
2018-09-14T11:04:14.182Z,1018.04
2018-09-14T11:05:14.145Z,1018.02
2018-09-14T11:06:14.129Z,1017.99
2018-09-14T11:07:14.153Z,1017.99
2018-09-14T11:08:14.135Z,1017.99
2018-09-14T11:09:14.069Z,1017.97
2018-09-14T11:10:14.054Z,1017.94
2018-09-14T11:11:14.028Z,1017.98
2018-09-14T11:12:14.446Z,1017.99
2018-09-14T11:13:14.036Z,1017.95
2018-09-14T11:14:14.893Z,1017.97
2018-09-14T11:15:13.951Z,1017.95
2018-09-14T11:16:14.933Z,1017.98
2018-09-14T11:17:13.912Z,1017.96
2018-09-14T11:18:13.938Z,1017.95
2018-09-14T11:19:13.872Z,1017.97
2018-09-14T11:20:14.405Z,1017.94
2018-09-14T11:21:13.833Z,1017.93
2018-09-14T11:22:13.818Z,1017.93
2018-09-14T11:23:13.848Z,1017.94
2018-09-14T11:24:13.777Z,1017.99
2018-09-14T11:25:13.880Z,1017.95
2018-09-14T11:26:13.739Z,1017.98
2018-09-14T11:27:14.394Z,1017.98
2018-09-14T11:28:13.957Z,1017.94
2018-09-14T11:29:13.679Z,1017.96
2018-09-14T11:30:13.659Z,1017.94
2018-09-14T11:31:13.636Z,1017.92
2018-09-14T11:32:14.401Z,1017.95
2018-09-14T11:33:13.648Z,1017.91
2018-09-14T11:34:14.431Z,1017.91
2018-09-14T11:35:13.614Z,1017.88
2018-09-14T11:36:13.545Z,1017.89
2018-09-14T11:37:13.525Z,1017.87
2018-09-14T11:38:13.566Z,1017.86
2018-09-14T11:39:13.482Z,1017.84
2018-09-14T11:40:13.509Z,1017.85
2018-09-14T11:41:13.447Z,1017.83
2018-09-14T11:42:13.430Z,1017.84
2018-09-14T11:43:13.405Z,1017.82
2018-09-14T11:44:13.387Z,1017.79
2018-09-14T11:45:13.474Z,1017.79
2018-09-14T11:46:13.399Z,1017.82
2018-09-14T11:47:13.330Z,1017.80
2018-09-14T11:48:13.308Z,1017.81
2018-09-14T11:49:13.298Z,1017.78
2018-09-14T11:50:13.310Z,1017.79
2018-09-14T11:51:13.902Z,1017.78
2018-09-14T11:52:13.268Z,1017.77
2018-09-14T11:53:13.220Z,1017.78
2018-09-14T11:54:13.223Z,1017.77
2018-09-14T11:55:13.188Z,1017.74
2018-09-14T11:56:13.158Z,1017.73
2018-09-14T11:57:13.170Z,1017.71
2018-09-14T11:58:13.202Z,1017.67
2018-09-14T11:59:13.099Z,1017.70
2018-09-14T12:00:13.907Z,1017.68
2018-09-14T12:01:13.117Z,1017.68
2018-09-14T12:02:13.039Z,1017.68
2018-09-14T12:03:13.077Z,1017.70
2018-09-14T12:04:13.026Z,1017.72
2018-09-14T12:05:12.982Z,1017.70